| time (UTC) | temp F | wind direction | speed MPH | gust MPH | rain 1hr in | rain 24hr in | rain mn in | humidity % | barometer mb |
| 20260507153005 | 59 | 55 | 2.0 | 10.0 | 0.00 | 0.34 | 0.13 | 42 | 1017.1 |
| 20260507151505 | 59 | 360 | 5.0 | 11.0 | 0.00 | 0.34 | 0.13 | 46 | 1017.4 |
| 20260507150001 | 59 | 279 | 0.0 | 10.0 | 0.00 | 0.34 | 0.13 | 48 | 1017.5 |
| 20260507144559 | 58 | 360 | 2.0 | 5.0 | 0.00 | 0.34 | 0.13 | 50 | 1017.5 |
| 20260507143114 | 57 | 360 | 2.0 | 9.0 | 0.00 | 0.34 | 0.13 | 55 | 1017.5 |
| 20260507141619 | 56 | 360 | 4.0 | 11.0 | 0.00 | 0.34 | 0.13 | 58 | 1017.5 |
| 20260507140111 | 56 | 316 | 3.0 | 9.0 | 0.00 | 0.34 | 0.13 | 62 | 1017.5 |
| 20260507134555 | 55 | 360 | 3.0 | 8.0 | 0.00 | 0.34 | 0.13 | 66 | 1017.6 |
| 20260507133056 | 54 | 360 | 2.0 | 8.0 | 0.00 | 0.34 | 0.13 | 69 | 1017.7 |
| 20260507131617 | 54 | 360 | 1.0 | 10.0 | 0.00 | 0.34 | 0.13 | 72 | 1017.7 |
| 20260507130048 | 53 | 360 | 2.0 | 6.0 | 0.00 | 0.34 | 0.13 | 76 | 1017.7 |
| 20260507124554 | 52 | 360 | 1.0 | 6.0 | 0.00 | 0.34 | 0.13 | 79 | 1017.8 |
| 20260507123047 | 52 | 360 | 2.0 | 9.0 | 0.00 | 0.34 | 0.13 | 79 | 1017.9 |
| 20260507121544 | 51 | 360 | 1.0 | 8.0 | 0.00 | 0.34 | 0.13 | 79 | 1017.7 |
| 20260507120044 | 51 | 360 | 1.0 | 9.0 | 0.00 | 0.34 | 0.13 | 80 | 1017.6 |
| 20260507114541 | 51 | 331 | 1.0 | 8.0 | 0.00 | 0.34 | 0.13 | 80 | 1017.5 |
| 20260507113102 | 51 | 277 | 0.0 | 8.0 | 0.00 | 0.34 | 0.13 | 81 | 1017.2 |
| 20260507111536 | 51 | 267 | 0.0 | 6.0 | 0.00 | 0.34 | 0.13 | 82 | 1017.1 |
| 20260507110037 | 51 | 300 | 0.0 | 8.0 | 0.00 | 0.34 | 0.13 | 83 | 1017.0 |
| 20260507104532 | 51 | 257 | 3.0 | 9.0 | 0.00 | 0.34 | 0.13 | 83 | 1016.9 |
| 20260507103027 | 51 | 245 | 3.0 | 6.0 | 0.00 | 0.34 | 0.13 | 84 | 1016.9 |
| 20260507101527 | 50 | 254 | 1.0 | 8.0 | 0.00 | 0.34 | 0.13 | 84 | 1016.6 |
| 20260507100037 | 51 | 11 | 1.0 | 5.0 | 0.00 | 0.34 | 0.13 | 85 | 1016.4 |
| 20260507094523 | 51 | 146 | 0.0 | 6.0 | 0.00 | 0.34 | 0.13 | 86 | 1016.3 |
| 20260507093027 | 50 | 261 | 2.0 | 8.0 | 0.01 | 0.34 | 0.13 | 86 | 1016.2 |
| 20260507091522 | 50 | 252 | 1.0 | 7.0 | 0.02 | 0.34 | 0.13 | 87 | 1016.3 |
| 20260507090022 | 50 | 257 | 2.0 | 8.0 | 0.02 | 0.34 | 0.13 | 87 | 1016.3 |
| 20260507084539 | 51 | 281 | 1.0 | 6.0 | 0.02 | 0.34 | 0.13 | 87 | 1016.4 |
| 20260507083024 | 51 | 194 | 2.0 | 9.0 | 0.01 | 0.33 | 0.12 | 87 | 1016.0 |
| 20260507081517 | 51 | 263 | 3.0 | 12.0 | 0.01 | 0.32 | 0.11 | 87 | 1016.0 |
| 20260507080015 | 51 | 287 | 2.0 | 9.0 | 0.02 | 0.32 | 0.11 | 87 | 1016.1 |
| 20260507074513 | 51 | 175 | 4.0 | 7.0 | 0.03 | 0.32 | 0.11 | 88 | 1016.6 |
| 20260507073013 | 52 | 271 | 3.0 | 10.0 | 0.04 | 0.32 | 0.11 | 87 | 1016.2 |
| 20260507071515 | 52 | 272 | 2.0 | 7.0 | 0.06 | 0.31 | 0.10 | 86 | 1016.0 |
| 20260507070016 | 52 | 269 | 3.0 | 8.0 | 0.06 | 0.30 | 0.09 | 86 | 1016.1 |
| 20260507064505 | 52 | 315 | 4.0 | 9.0 | 0.08 | 0.28 | 0.08 | 86 | 1016.1 |
| 20260507063001 | 53 | 214 | 4.0 | 8.0 | 0.07 | 0.28 | 0.07 | 86 | 1016.2 |
| 20260507061559 | 53 | 185 | 2.0 | 7.0 | 0.04 | 0.25 | 0.04 | 85 | 1015.6 |
| 20260507061502 | 53 | 239 | 1.0 | 6.0 | 0.04 | 0.25 | 0.04 | 85 | 1015.6 |
| 20260507060058 | 54 | 250 | 2.0 | 7.0 | 0.03 | 0.24 | 0.03 | 83 | 1015.7 |
| 20260507054553 | 55 | 360 | 2.0 | 9.0 | 0.00 | 0.21 | 0.00 | 80 | 1015.7 |
| 20260507053051 | 56 | 360 | 2.0 | 8.0 | 0.00 | 0.21 | 0.00 | 79 | 1015.2 |
| 20260507051548 | 56 | 360 | 2.0 | 9.0 | 0.00 | 0.21 | 0.00 | 77 | 1015.0 |
| 20260507050103 | 57 | 360 | 3.0 | 6.0 | 0.00 | 0.21 | 0.00 | 77 | 1015.5 |
| 20260507044552 | 57 | 360 | 0.0 | 6.0 | 0.00 | 0.21 | 0.00 | 78 | 1015.2 |
| 20260507043044 | 57 | 360 | 2.0 | 5.0 | 0.00 | 0.21 | 0.00 | 78 | 1015.4 |
| 20260507041544 | 57 | 360 | 2.0 | 6.0 | 0.00 | 0.21 | 0.00 | 79 | 1015.6 |
| 20260507040039 | 57 | 360 | 1.0 | 6.0 | 0.00 | 0.21 | 0.00 | 80 | 1015.7 |
| 20260507034541 | 58 | 360 | 2.0 | 6.0 | 0.00 | 0.21 | 0.21 | 80 | 1015.5 |
| 20260507033042 | 58 | 360 | 3.0 | 9.0 | 0.00 | 0.21 | 0.21 | 80 | 1015.4 |
| 20260507031536 | 58 | 360 | 1.0 | 6.0 | 0.00 | 0.21 | 0.21 | 81 | 1015.2 |
| 20260507030037 | 59 | 360 | 2.0 | 9.0 | 0.01 | 0.21 | 0.21 | 82 | 1015.3 |
| 20260507024540 | 60 | 360 | 2.0 | 8.0 | 0.04 | 0.21 | 0.21 | 88 | 1015.5 |
| 20260507023027 | 62 | 360 | 3.0 | 10.0 | 0.15 | 0.21 | 0.21 | 88 | 1015.2 |
| 20260507021543 | 64 | 360 | 4.0 | 12.0 | 0.17 | 0.21 | 0.21 | 88 | 1015.4 |
| 20260507020026 | 64 | 360 | 3.0 | 10.0 | 0.16 | 0.20 | 0.20 | 87 | 1014.5 |
| 20260507014524 | 65 | 360 | 0.0 | 4.0 | 0.12 | 0.16 | 0.16 | 86 | 1014.5 |
| 20260507013021 | 66 | 360 | 2.0 | 4.0 | 0.02 | 0.06 | 0.06 | 83 | 1014.6 |
| 20260507011529 | 67 | 216 | 0.0 | 3.0 | 0.00 | 0.04 | 0.04 | 79 | 1014.2 |
| 20260507010032 | 67 | 263 | 0.0 | 4.0 | 0.00 | 0.04 | 0.04 | 78 | 1014.0 |
| 20260507004521 | 67 | 213 | 1.0 | 6.0 | 0.00 | 0.04 | 0.04 | 79 | 1014.0 |
| 20260507003019 | 67 | 271 | 1.0 | 6.0 | 0.00 | 0.04 | 0.04 | 79 | 1013.7 |
| 20260507001519 | 67 | 215 | 0.0 | 3.0 | 0.00 | 0.04 | 0.04 | 79 | 1014.0 |
| 20260507000018 | 67 | 108 | 1.0 | 4.0 | 0.00 | 0.04 | 0.04 | 79 | 1013.9 |
| 20260506234518 | 67 | 148 | 0.0 | 6.0 | 0.00 | 0.04 | 0.04 | 79 | 1013.7 |
| 20260506233017 | 67 | 165 | 1.0 | 6.0 | 0.00 | 0.04 | 0.04 | 79 | 1013.5 |
| 20260506231522 | 67 | 175 | 1.0 | 8.0 | 0.01 | 0.04 | 0.04 | 79 | 1013.7 |
| 20260506230016 | 67 | 305 | 1.0 | 10.0 | 0.01 | 0.04 | 0.04 | 79 | 1013.6 |
| 20260506224516 | 67 | 165 | 3.0 | 11.0 | 0.01 | 0.04 | 0.04 | 79 | 1013.5 |
| 20260506223017 | 67 | 360 | 1.0 | 6.0 | 0.01 | 0.04 | 0.04 | 80 | 1013.4 |
| 20260506221514 | 66 | 227 | 0.0 | 6.0 | 0.00 | 0.03 | 0.03 | 80 | 1013.4 |
| 20260506220022 | 66 | 259 | 2.0 | 7.0 | 0.00 | 0.03 | 0.03 | 80 | 1013.4 |
| 20260506214514 | 66 | 215 | 1.0 | 8.0 | 0.00 | 0.03 | 0.03 | 81 | 1013.3 |
| 20260506213013 | 66 | 214 | 2.0 | 5.0 | 0.00 | 0.03 | 0.03 | 82 | 1013.1 |
| 20260506211512 | 65 | 360 | 0.0 | 8.0 | 0.00 | 0.03 | 0.03 | 83 | 1013.1 |
| 20260506210012 | 65 | 360 | 1.0 | 6.0 | 0.00 | 0.03 | 0.03 | 85 | 1013.0 |
| 20260506204512 | 64 | 360 | 2.0 | 4.0 | 0.00 | 0.03 | 0.03 | 86 | 1012.9 |
| 20260506203022 | 64 | 360 | 0.0 | 5.0 | 0.00 | 0.03 | 0.03 | 87 | 1013.1 |
| 20260506201510 | 64 | 360 | 0.0 | 2.0 | 0.00 | 0.03 | 0.03 | 88 | 1013.1 |
| 20260506200006 | 64 | 360 | 0.0 | 3.0 | 0.01 | 0.03 | 0.03 | 87 | 1013.3 |
| 20260506194510 | 64 | 360 | 2.0 | 5.0 | 0.01 | 0.03 | 0.03 | 86 | 1013.4 |
| 20260506193003 | 64 | 360 | 0.0 | 8.0 | 0.01 | 0.03 | 0.03 | 86 | 1013.6 |
| 20260506191502 | 64 | 360 | 1.0 | 5.0 | 0.01 | 0.03 | 0.03 | 84 | 1013.8 |
| 20260506184610 | 65 | 101 | 0.0 | 4.0 | 0.00 | 0.02 | 0.02 | 79 | 1013.9 |
| 20260506183106 | 65 | 76 | 2.0 | 5.0 | 0.00 | 0.02 | 0.02 | 79 | 1013.8 |
| 20260506181601 | 65 | 138 | 1.0 | 9.0 | 0.00 | 0.02 | 0.02 | 80 | 1014.1 |
| 20260506180057 | 67 | 98 | 5.0 | 9.0 | 0.01 | 0.02 | 0.02 | 77 | 1014.2 |
| 20260506174602 | 67 | 275 | 1.0 | 7.0 | 0.01 | 0.02 | 0.02 | 76 | 1014.2 |
| 20260506173111 | 67 | 293 | 1.0 | 8.0 | 0.02 | 0.02 | 0.02 | 76 | 1014.2 |
| 20260506171554 | 67 | 272 | 2.0 | 12.0 | 0.02 | 0.02 | 0.02 | 74 | 1014.4 |
| 20260506170054 | 68 | 257 | 0.0 | 5.0 | 0.01 | 0.01 | 0.01 | 73 | 1015.2 |
| 20260506164553 | 69 | 254 | 3.0 | 8.0 | 0.01 | 0.01 | 0.01 | 71 | 1015.1 |
| 20260506163052 | 70 | 269 | 6.0 | 11.0 | 0.00 | 0.00 | 0.00 | 67 | 1015.1 |
| 20260506161556 | 71 | 156 | 2.0 | 8.0 | 0.00 | 0.00 | 0.00 | 62 | 1015.5 |
| 20260506160047 | 73 | 255 | 2.0 | 8.0 | 0.00 | 0.00 | 0.00 | 61 | 1015.6 |
| 20260506154546 | 72 | 257 | 3.0 | 8.0 | 0.00 | 0.00 | 0.00 | 62 | 1015.3 |